Wetterdaten der Wetterstation 22117 Öjendorf (Hamburg)

Letzte Wetterlage 01.08.2015 13:27
Wetterdiagramm
Tabellarische Darstellung
Datum Temperatur Windchill Feuchte Luftdruck Windrichtung Windstärke Niederschlag
01.08.2015 13:37 19,7 °C 19,7 °C 36 % 1017,2 hPa 0 l/m²
01.08.2015 13:27 19,5 °C 19,5 °C 37 % 1017,3 hPa 0 l/m²
01.08.2015 13:17 19,4 °C 19,4 °C 34 % 1017,3 hPa 0 l/m²
01.08.2015 13:07 19,2 °C 19,2 °C 35 % 1017,5 hPa 0 l/m²
01.08.2015 12:57 19,0 °C 19,0 °C 36 % 1017,6 hPa 0 l/m²
01.08.2015 12:47 18,9 °C 18,9 °C 35 % 1017,7 hPa 0 l/m²
01.08.2015 12:37 18,7 °C 18,7 °C 37 % 1017,8 hPa 0 l/m²
01.08.2015 12:27 18,5 °C 18,5 °C 37 % 1017,9 hPa 0 l/m²
01.08.2015 12:17 18,4 °C 18,4 °C 37 % 1017,9 hPa 0 l/m²
01.08.2015 12:07 18,1 °C 18,1 °C 37 % 1017,9 hPa 0 l/m²
01.08.2015 11:57 17,8 °C 17,8 °C 38 % 1017,9 hPa 0 l/m²
01.08.2015 11:47 17,5 °C 17,5 °C 40 % 1017,9 hPa 0 l/m²
01.08.2015 11:37 17,1 °C 17,1 °C 40 % 1017,9 hPa 0 l/m²
01.08.2015 11:27 16,8 °C 16,8 °C 42 % 1018,1 hPa 0 l/m²
01.08.2015 11:17 16,6 °C 16,6 °C 42 % 1018,1 hPa 0 l/m²
01.08.2015 11:07 16,4 °C 16,4 °C 42 % 1018,1 hPa 0 l/m²
01.08.2015 10:57 16,0 °C 16,0 °C 43 % 1018,1 hPa 0 l/m²
01.08.2015 10:47 15,7 °C 15,7 °C 45 % 1018,1 hPa 0 l/m²
01.08.2015 10:37 15,2 °C 15,2 °C 45 % 1018,1 hPa 0 l/m²
01.08.2015 10:27 15,0 °C 15,0 °C 46 % 1018,1 hPa 0 l/m²
01.08.2015 10:17 14,8 °C 14,8 °C 48 % 1018,1 hPa 0 l/m²
01.08.2015 10:07 14,5 °C 14,5 °C 51 % 1018,1 hPa 0 l/m²
01.08.2015 09:57 14,2 °C 14,2 °C 54 % 1018,1 hPa 0 l/m²
01.08.2015 09:47 14,0 °C 14,0 °C 54 % 1018,1 hPa 0 l/m²
01.08.2015 09:37 13,8 °C 13,8 °C 54 % 1018,2 hPa 0 l/m²
Neue Wetterwarnung

Neue Niederschlagsmeldung
Neue Meldung
Regen Liveticker
    sehr starker Regen/Gewitter
    starker Regen/Gewitter
    mäßiger bis starker Regen
    mäßiger Regen
    leichter bis mäßiger Regen
    kein Regen